North Fort Myers, FL

3:58 PM EDT on August 27, 2016 (GMT -0400)
| | Change Station

Elev -9999 ft 0.00 °N, 0.00 °E | Updated

Thunderstorm
Thunderstorm
84 °F
Feels Like 92 °F
N
9
Wind Variable Wind from ENE
Gusts mph

Today
High -- | Low -- °F
--% Chance of Precip.
Yesterday
High -- | Low -- °F
Precip. -- in
Pressure 29.91 in
Visibility 10.0 miles
Clouds Few 2500 ft
Mostly Cloudy 6500 ft
Overcast 11000 ft
Heat Index 92 °F
Dew Point 76 °F
Humidity 75%
Rainfall --
Snow Depth Not available.
7:04 AM 7:51 PM
Waning Crescent, 22% visible
METAR KFMY 271953Z 08003KT 10SM TS FEW025 BKN065 OVC110 27/24 A2990 RMK AO2 LTG DSNT S-W RAB10E46 TSB27 SLP127 P0025 T02670244
Pressure 29.91 in
Visibility 10.0 miles
Clouds Few 2500 ft
Mostly Cloudy 6500 ft
Overcast 11000 ft
Heat Index 92 °F
Dew Point 76 °F
Humidity 75%
Rainfall --
Snow Depth Not available.
7:04 AM 7:51 PM
Waning Crescent, 22% visible
METAR KFMY 271953Z 08003KT 10SM TS FEW025 BKN065 OVC110 27/24 A2990 RMK AO2 LTG DSNT S-W RAB10E46 TSB27 SLP127 P0025 T02670244

10-Day Weather Forecast

Almanac

Astronomy

Aug. 27, 2016 Rise Set
Actual Time
Civil Twilight
Nautical Twilight
Astronomical Twilight
Moon
Length of Visible Light
Length of Day
Tomorrow will be .
, % of the Moon is Illuminated

Today's Extremes

State Highs State Lows

Community

WunderPhotos

Upload Photos

1,935,432 photos uploaded!

WunderBlog® & News

Nearby

Air Quality

  Air Quality AQ Index Pollutant
Not available.

Snow Depth

Station Depth Elevation

Earthquake Activity

City Distance Mag. Time & Date
Minimum magnitude displayed is 2.5.

Coastal Water Temperatures

Place Temperature

Stations

Nearby Weather Stations

Station Location Temp. Windchill Dew Point Humidity Wind Precip. Elev Updated Type
                   

Watches & Warnings

There are currently no watches in effect.